MMDO/DGO METAR and TAF weather

Enter ICAO airport designator
Station Type Date Time Source
MMDO METAR 2019/10/21 02:46 UTC NOAA

MMDO 210246Z 15007KT 7SM -RA BKN025CB OVC070 OVC200 19/17 A3008 RMK SLP053 52019 904 8/91/ -RAB50


Station Type Date Time Source
MMDO Decoded METAR 2019/10/21 02:46 UTC NOAA

Durango Airport, Mexico (MMDO) 24-08N 104-32W
Oct 20, 2019 - 10:46 PM EDT / 2019.10.21 0246 UTC
Wind: from the SSE (150 degrees) at 8 MPH (7 KT):0
Visibility: 7 mile(s):0
Sky conditions: overcast
Weather: light rain; Cumulonimbus clouds observed
Temperature: 66 F (19 C)
Dew Point: 62 F (17 C)
Relative Humidity: 88%
Pressure (altimeter): 30.08 in. Hg (1018 hPa)
Pressure tendency: 0.06 inches (1.9 hPa) higher than three hours ago
ob: MMDO 210246Z 15007KT 7SM -RA BKN025CB OVC070 OVC200 19/17 A3008 RMK SLP053 52019 904 8/91/ -RAB50
cycle: 3

Station Type Date Time Source
MMDO TAF 2019/10/21 06:38 UTC NOAA

TAF MMDO 210435Z 2106/2206 18005KT 6SM HZ SCT020 BKN070 OVC200
TEMPO 2106/2110 6SM -TSRA BKN020
FM211800 08010KT 6SM HZ BKN030 BKN200
TEMPO 2122/2202 6SM TSRA BKN020CB

Example: see airport list